sensor_id;sensor_type;location;lat;lon;timestamp;pressure;altitude;pressure_sealevel;temperature;humidity
62152;BME280;48139;47.474;19.034;2023-02-14T04:46:34;102126.62;;;2.03;100.00
62152;BME280;48139;47.474;19.034;2023-02-14T04:49:37;102126.62;;;2.03;100.00
62152;BME280;48139;47.474;19.034;2023-02-14T04:52:40;102136.09;;;1.53;100.00
62152;BME280;48139;47.474;19.034;2023-02-14T04:55:43;102128.31;;;1.52;100.00
62152;BME280;48139;47.474;19.034;2023-02-14T04:58:46;102123.16;;;1.52;100.00
62152;BME280;48139;47.474;19.034;2023-02-14T05:01:49;102121.50;;;1.55;100.00
62152;BME280;48139;47.474;19.034;2023-02-14T05:04:51;102123.16;;;1.52;100.00
62152;BME280;48139;47.474;19.034;2023-02-14T05:07:54;102124.78;;;1.47;100.00
62152;BME280;48139;47.474;19.034;2023-02-14T05:10:56;102120.63;;;1.56;100.00
62152;BME280;48139;47.474;19.034;2023-02-14T05:13:59;102130.97;;;1.55;100.00
62152;BME280;48139;47.474;19.034;2023-02-14T05:17:02;102129.28;;;1.58;100.00
62152;BME280;48139;47.474;19.034;2023-02-14T05:20:06;102126.97;;;1.72;100.00
62152;BME280;48139;47.474;19.034;2023-02-14T05:23:09;102122.84;;;1.83;100.00
62152;BME280;48139;47.474;19.034;2023-02-14T05:26:16;102128.87;;;1.84;100.00
62152;BME280;48139;47.474;19.034;2023-02-14T05:29:19;102129.03;;;1.94;100.00
62152;BME280;48139;47.474;19.034;2023-02-14T05:32:22;102131.03;;;2.09;100.00
62152;BME280;48139;47.474;19.034;2023-02-14T05:35:24;102127.66;;;2.15;100.00
62152;BME280;48139;47.474;19.034;2023-02-14T05:38:28;102125.91;;;2.14;100.00
62152;BME280;48139;47.474;19.034;2023-02-14T05:41:31;102123.31;;;2.11;100.00
62152;BME280;48139;47.474;19.034;2023-02-14T05:44:33;102132.59;;;1.99;100.00
62152;BME280;48139;47.474;19.034;2023-02-14T05:47:36;102126.47;;;1.93;100.00
62152;BME280;48139;47.474;19.034;2023-02-14T05:50:39;102128.84;;;1.81;100.00
62152;BME280;48139;47.474;19.034;2023-02-14T05:53:43;102132.06;;;1.68;100.00
62152;BME280;48139;47.474;19.034;2023-02-14T05:56:46;102143.16;;;1.62;100.00
62152;BME280;48139;47.474;19.034;2023-02-14T05:59:48;102145.69;;;1.60;100.00
62152;BME280;48139;47.474;19.034;2023-02-14T06:02:51;102138.00;;;1.63;100.00
62152;BME280;48139;47.474;19.034;2023-02-14T06:05:54;102144.06;;;1.66;100.00
62152;BME280;48139;47.474;19.034;2023-02-14T06:08:57;102145.03;;;1.72;100.00
62152;BME280;48139;47.474;19.034;2023-02-14T06:12:00;102148.63;;;1.82;100.00
62152;BME280;48139;47.474;19.034;2023-02-14T06:15:02;102147.63;;;1.72;100.00
62152;BME280;48139;47.474;19.034;2023-02-14T06:18:05;102148.50;;;1.73;100.00
62152;BME280;48139;47.474;19.034;2023-02-14T06:21:08;102151.00;;;1.70;100.00
62152;BME280;48139;47.474;19.034;2023-02-14T06:24:11;102156.97;;;1.66;100.00
62152;BME280;48139;47.474;19.034;2023-02-14T06:27:13;102157.16;;;1.76;100.00
62152;BME280;48139;47.474;19.034;2023-02-14T06:30:17;102162.47;;;1.84;100.00
62152;BME280;48139;47.474;19.034;2023-02-14T06:33:19;102165.19;;;1.91;100.00
62152;BME280;48139;47.474;19.034;2023-02-14T06:36:22;102176.37;;;1.90;100.00
62152;BME280;48139;47.474;19.034;2023-02-14T06:39:25;102178.97;;;1.92;100.00
62152;BME280;48139;47.474;19.034;2023-02-14T06:42:30;102178.28;;;2.02;100.00
62152;BME280;48139;47.474;19.034;2023-02-14T06:45:32;102186.09;;;2.05;100.00
62152;BME280;48139;47.474;19.034;2023-02-14T06:48:35;102189.81;;;2.21;100.00
62152;BME280;48139;47.474;19.034;2023-02-14T06:51:38;102185.75;;;2.38;100.00
62152;BME280;48139;47.474;19.034;2023-02-14T06:54:41;102186.72;;;2.43;100.00
62152;BME280;48139;47.474;19.034;2023-02-14T06:57:44;102200.84;;;2.65;100.00
62152;BME280;48139;47.474;19.034;2023-02-14T07:00:47;102195.41;;;3.08;100.00
62152;BME280;48139;47.474;19.034;2023-02-14T07:03:49;102192.87;;;3.13;100.00
62152;BME280;48139;47.474;19.034;2023-02-14T07:06:52;102192.87;;;3.13;100.00
62152;BME280;48139;47.474;19.034;2023-02-14T07:09:54;102199.84;;;3.17;100.00
62152;BME280;48139;47.474;19.034;2023-02-14T07:12:57;102200.03;;;3.34;100.00
62152;BME280;48139;47.474;19.034;2023-02-14T07:16:00;102197.56;;;3.41;100.00
62152;BME280;48139;47.474;19.034;2023-02-14T07:19:03;102193.31;;;3.51;100.00
62152;BME280;48139;47.474;19.034;2023-02-14T07:22:06;102197.78;;;3.64;100.00
62152;BME280;48139;47.474;19.034;2023-02-14T07:25:10;102191.03;;;3.77;100.00
62152;BME280;48139;47.474;19.034;2023-02-14T07:28:12;102197.19;;;3.89;100.00
62152;BME280;48139;47.474;19.034;2023-02-14T07:31:16;102195.50;;;3.94;100.00
62152;BME280;48139;47.474;19.034;2023-02-14T07:34:20;102208.50;;;3.97;100.00
62152;BME280;48139;47.474;19.034;2023-02-14T07:37:22;102208.59;;;4.06;100.00
62152;BME280;48139;47.474;19.034;2023-02-14T07:40:25;102206.09;;;4.16;100.00
62152;BME280;48139;47.474;19.034;2023-02-14T07:43:28;102214.75;;;4.16;100.00
62152;BME280;48139;47.474;19.034;2023-02-14T07:46:31;102211.44;;;4.34;100.00
62152;BME280;48139;47.474;19.034;2023-02-14T07:49:35;102222.66;;;4.33;100.00
62152;BME280;48139;47.474;19.034;2023-02-14T07:52:38;102221.94;;;4.49;100.00
62152;BME280;48139;47.474;19.034;2023-02-14T07:55:41;102222.00;;;4.60;100.00
62152;BME280;48139;47.474;19.034;2023-02-14T07:58:43;102226.41;;;4.67;100.00
62152;BME280;48139;47.474;19.034;2023-02-14T08:01:46;102227.25;;;4.69;100.00
62152;BME280;48139;47.474;19.034;2023-02-14T08:04:49;102226.44;;;4.73;100.00
62152;BME280;48139;47.474;19.034;2023-02-14T08:07:52;102225.69;;;4.92;100.00
62152;BME280;48139;47.474;19.034;2023-02-14T08:10:54;102225.72;;;4.98;100.00
62152;BME280;48139;47.474;19.034;2023-02-14T08:13:57;102219.66;;;5.01;100.00
62152;BME280;48139;47.474;19.034;2023-02-14T08:17:00;102224.94;;;5.19;100.00
62152;BME280;48139;47.474;19.034;2023-02-14T08:20:03;102214.62;;;5.33;100.00
62152;BME280;48139;47.474;19.034;2023-02-14T08:23:06;102213.75;;;5.32;100.00
62152;BME280;48139;47.474;19.034;2023-02-14T08:26:09;102212.16;;;5.67;100.00
62152;BME280;48139;47.474;19.034;2023-02-14T08:29:12;102212.72;;;7.79;97.44
62152;BME280;48139;47.474;19.034;2023-02-14T08:32:18;102214.78;;;9.99;73.79
62152;BME280;48139;47.474;19.034;2023-02-14T08:35:22;102208.41;;;11.98;59.67
62152;BME280;48139;47.474;19.034;2023-02-14T08:38:31;102207.91;;;13.49;50.54
62152;BME280;48139;47.474;19.034;2023-02-14T08:41:35;102206.28;;;14.00;49.05
62152;BME280;48139;47.474;19.034;2023-02-14T08:44:38;102208.03;;;15.05;44.58
62152;BME280;48139;47.474;19.034;2023-02-14T08:47:40;102220.63;;;14.47;45.49
62152;BME280;48139;47.474;19.034;2023-02-14T08:50:43;102208.84;;;13.76;48.67
62152;BME280;48139;47.474;19.034;2023-02-14T08:53:48;102204.97;;;13.59;47.34
62152;BME280;48139;47.474;19.034;2023-02-14T08:56:51;102210.53;;;11.81;52.65
62152;BME280;48139;47.474;19.034;2023-02-14T08:59:54;102214.38;;;11.64;54.45
62152;BME280;48139;47.474;19.034;2023-02-14T09:02:56;102226.37;;;11.78;52.57
62152;BME280;48139;47.474;19.034;2023-02-14T09:06:06;102210.41;;;12.58;51.31
62152;BME280;48139;47.474;19.034;2023-02-14T09:09:09;102212.06;;;13.26;49.30
62152;BME280;48139;47.474;19.034;2023-02-14T09:12:12;102214.84;;;13.51;47.90
62152;BME280;48139;47.474;19.034;2023-02-14T09:15:15;102203.97;;;14.45;45.37
62152;BME280;48139;47.474;19.034;2023-02-14T09:18:19;102205.31;;;15.07;43.66
62152;BME280;48139;47.474;19.034;2023-02-14T09:21:23;102198.44;;;15.03;43.87
62152;BME280;48139;47.474;19.034;2023-02-14T09:24:27;102210.09;;;13.92;45.69
62152;BME280;48139;47.474;19.034;2023-02-14T09:27:29;102214.53;;;11.97;50.70
62152;BME280;48139;47.474;19.034;2023-02-14T09:30:32;102212.41;;;10.42;58.20
62152;BME280;48139;47.474;19.034;2023-02-14T09:33:35;102214.88;;;9.30;63.24
62152;BME280;48139;47.474;19.034;2023-02-14T09:36:57;102217.00;;;8.95;68.05
62152;BME280;48139;47.474;19.034;2023-02-14T09:40:18;102225.31;;;8.44;71.55
62152;BME280;48139;47.474;19.034;2023-02-14T09:43:42;102222.87;;;8.20;72.85
62152;BME280;48139;47.474;19.034;2023-02-14T09:46:52;102224.69;;;8.06;75.06
62152;BME280;48139;47.474;19.034;2023-02-14T09:49:57;102223.78;;;8.15;73.91
62152;BME280;48139;47.474;19.034;2023-02-14T09:53:29;102221.94;;;8.26;75.54
62152;BME280;48139;47.474;19.034;2023-02-14T09:56:51;102222.69;;;8.44;72.72
62152;BME280;48139;47.474;19.034;2023-02-14T10:13:32;102221.94;;;8.32;74.26
62152;BME280;48139;47.474;19.034;2023-02-14T10:16:43;102216.78;;;8.23;72.32
62152;BME280;48139;47.474;19.034;2023-02-14T10:19:54;102214.91;;;8.41;72.40
62152;BME280;48139;47.474;19.034;2023-02-14T10:23:04;102217.59;;;8.25;72.92
62152;BME280;48139;47.474;19.034;2023-02-14T10:26:15;102211.38;;;8.44;72.42
62152;BME280;48139;47.474;19.034;2023-02-14T10:29:18;102212.34;;;8.35;70.78
62152;BME280;48139;47.474;19.034;2023-02-14T10:32:34;102209.53;;;8.58;71.07
62152;BME280;48139;47.474;19.034;2023-02-14T10:39:06;102205.06;;;8.71;70.14
62152;BME280;48139;47.474;19.034;2023-02-14T10:42:48;102199.75;;;8.78;68.21
62152;BME280;48139;47.474;19.034;2023-02-14T10:55:41;102193.66;;;8.76;65.54
62152;BME280;48139;47.474;19.034;2023-02-14T10:58:47;102192.81;;;8.76;66.40
62152;BME280;48139;47.474;19.034;2023-02-14T11:01:52;102192.78;;;8.80;66.46
62152;BME280;48139;47.474;19.034;2023-02-14T11:04:59;102187.62;;;8.70;66.97
62152;BME280;48139;47.474;19.034;2023-02-14T11:08:13;102181.34;;;8.87;65.48
62152;BME280;48139;47.474;19.034;2023-02-14T11:11:23;102175.38;;;8.79;66.02
62152;BME280;48139;47.474;19.034;2023-02-14T11:14:38;102179.78;;;8.73;65.70
62152;BME280;48139;47.474;19.034;2023-02-14T11:17:41;102180.66;;;8.70;65.94
62152;BME280;48139;47.474;19.034;2023-02-14T11:21:18;102179.72;;;8.79;65.66
62152;BME280;48139;47.474;19.034;2023-02-14T11:24:28;102173.81;;;8.60;66.83
62152;BME280;48139;47.474;19.034;2023-02-14T11:27:31;102178.91;;;8.72;66.56
62152;BME280;48139;47.474;19.034;2023-02-14T11:30:38;102169.16;;;8.88;66.01
62152;BME280;48139;47.474;19.034;2023-02-14T11:33:42;102179.44;;;9.03;65.45
62152;BME280;48139;47.474;19.034;2023-02-14T11:36:45;102175.25;;;8.87;65.28
62152;BME280;48139;47.474;19.034;2023-02-14T11:39:49;102172.50;;;9.01;64.78
62152;BME280;48139;47.474;19.034;2023-02-14T11:42:53;102181.06;;;9.13;64.23
62152;BME280;48139;47.474;19.034;2023-02-14T11:46:11;102163.69;;;9.11;64.30
62152;BME280;48139;47.474;19.034;2023-02-14T11:49:32;102167.16;;;9.10;64.61
62152;BME280;48139;47.474;19.034;2023-02-14T11:52:48;102168.69;;;9.27;62.95
62152;BME280;48139;47.474;19.034;2023-02-14T11:55:53;102159.97;;;9.28;62.81
62152;BME280;48139;47.474;19.034;2023-02-14T11:59:02;102162.59;;;9.25;63.66
62152;BME280;48139;47.474;19.034;2023-02-14T12:05:19;102171.38;;;9.23;62.70
62152;BME280;48139;47.474;19.034;2023-02-14T12:08:24;102162.66;;;9.21;61.08
62152;BME280;48139;47.474;19.034;2023-02-14T12:11:28;102169.00;;;9.02;61.22
62152;BME280;48139;47.474;19.034;2023-02-14T12:14:33;102159.28;;;9.13;60.52
62152;BME280;48139;47.474;19.034;2023-02-14T12:17:37;102156.53;;;9.23;59.42
62152;BME280;48139;47.474;19.034;2023-02-14T12:27:42;102151.16;;;9.34;60.89
62152;BME280;48139;47.474;19.034;2023-02-14T12:30:49;102147.41;;;9.55;60.37
62152;BME280;48139;47.474;19.034;2023-02-14T12:33:52;102149.00;;;9.62;59.64
62152;BME280;48139;47.474;19.034;2023-02-14T12:47:14;102130.88;;;8.82;63.29
62152;BME280;48139;47.474;19.034;2023-02-14T12:50:36;102128.91;;;9.03;63.55
62152;BME280;48139;47.474;19.034;2023-02-14T13:00:52;102111.50;;;9.63;60.71
62152;BME280;48139;47.474;19.034;2023-02-14T13:07:50;102110.31;;;9.84;58.65
62152;BME280;48139;47.474;19.034;2023-02-14T13:11:18;102108.41;;;9.93;57.36
62152;BME280;48139;47.474;19.034;2023-02-14T13:17:35;102104.13;;;9.88;59.39
62152;BME280;48139;47.474;19.034;2023-02-14T13:20:57;102105.06;;;9.85;58.01
62152;BME280;48139;47.474;19.034;2023-02-14T13:24:25;102097.78;;;10.02;57.25
62152;BME280;48139;47.474;19.034;2023-02-14T13:27:36;102101.16;;;10.10;58.02
62152;BME280;48139;47.474;19.034;2023-02-14T13:30:40;102093.31;;;10.09;57.96
62152;BME280;48139;47.474;19.034;2023-02-14T13:33:53;102092.56;;;10.02;57.55
62152;BME280;48139;47.474;19.034;2023-02-14T13:36:59;102099.75;;;9.88;58.41
62152;BME280;48139;47.474;19.034;2023-02-14T13:40:07;102097.78;;;10.04;57.65
62152;BME280;48139;47.474;19.034;2023-02-14T13:43:52;102100.41;;;10.02;56.82
62152;BME280;48139;47.474;19.034;2023-02-14T13:47:01;102097.81;;;10.01;58.46
62152;BME280;48139;47.474;19.034;2023-02-14T13:50:04;102097.00;;;9.97;58.55
62152;BME280;48139;47.474;19.034;2023-02-14T13:53:11;102099.31;;;10.17;58.49
62152;BME280;48139;47.474;19.034;2023-02-14T13:59:34;102087.28;;;10.05;58.83
62152;BME280;48139;47.474;19.034;2023-02-14T14:02:45;102094.09;;;10.12;57.80
62152;BME280;48139;47.474;19.034;2023-02-14T14:08:59;102091.69;;;10.02;57.64
62152;BME280;48139;47.474;19.034;2023-02-14T14:12:02;102090.44;;;9.72;59.24
62152;BME280;48139;47.474;19.034;2023-02-14T14:24:37;102100.34;;;9.50;60.78
62152;BME280;48139;47.474;19.034;2023-02-14T14:27:44;102096.03;;;9.49;61.24
62152;BME280;48139;47.474;19.034;2023-02-14T14:30:47;102094.25;;;9.50;61.21
62152;BME280;48139;47.474;19.034;2023-02-14T14:34:00;102102.09;;;9.50;61.21
62152;BME280;48139;47.474;19.034;2023-02-14T14:37:16;102093.19;;;9.63;60.66
62152;BME280;48139;47.474;19.034;2023-02-14T14:40:30;102094.25;;;9.51;61.52
62152;BME280;48139;47.474;19.034;2023-02-14T14:43:35;102091.44;;;9.63;60.82
62152;BME280;48139;47.474;19.034;2023-02-14T14:46:40;102082.78;;;9.60;60.55
62152;BME280;48139;47.474;19.034;2023-02-14T14:49:43;102082.00;;;9.53;61.60
62152;BME280;48139;47.474;19.034;2023-02-14T14:52:48;102082.91;;;9.52;61.60
62152;BME280;48139;47.474;19.034;2023-02-14T14:55:51;102084.72;;;9.47;61.30
62152;BME280;48139;47.474;19.034;2023-02-14T14:58:54;102085.69;;;9.42;61.54
62152;BME280;48139;47.474;19.034;2023-02-14T15:01:57;102087.53;;;9.35;61.54
62152;BME280;48139;47.474;19.034;2023-02-14T15:05:18;102079.88;;;9.18;63.19
62152;BME280;48139;47.474;19.034;2023-02-14T15:11:29;102092.97;;;9.18;64.22
62152;BME280;48139;47.474;19.034;2023-02-14T15:14:51;102093.75;;;9.25;64.26
62152;BME280;48139;47.474;19.034;2023-02-14T15:17:56;102085.84;;;9.29;64.24
62152;BME280;48139;47.474;19.034;2023-02-14T15:20:59;102088.50;;;9.28;64.48
62152;BME280;48139;47.474;19.034;2023-02-14T15:24:02;102081.66;;;9.18;64.90
62152;BME280;48139;47.474;19.034;2023-02-14T15:27:08;102089.53;;;9.15;64.47
62152;BME280;48139;47.474;19.034;2023-02-14T15:33:22;102088.97;;;8.92;65.82
62152;BME280;48139;47.474;19.034;2023-02-14T15:36:26;102087.50;;;8.69;66.96
62152;BME280;48139;47.474;19.034;2023-02-14T15:39:35;102089.50;;;8.49;68.62
62152;BME280;48139;47.474;19.034;2023-02-14T15:42:39;102088.59;;;8.50;68.75
62152;BME280;48139;47.474;19.034;2023-02-14T15:45:47;102088.63;;;8.45;69.94
62152;BME280;48139;47.474;19.034;2023-02-14T15:48:53;102094.06;;;8.24;71.69
62152;BME280;48139;47.474;19.034;2023-02-14T15:51:59;102095.00;;;8.14;73.03
62152;BME280;48139;47.474;19.034;2023-02-14T15:55:07;102092.50;;;8.02;71.88
62152;BME280;48139;47.474;19.034;2023-02-14T15:58:31;102086.47;;;7.95;71.69
62152;BME280;48139;47.474;19.034;2023-02-14T16:01:34;102093.50;;;7.87;71.47
62152;BME280;48139;47.474;19.034;2023-02-14T16:04:38;102085.03;;;7.61;73.97
62152;BME280;48139;47.474;19.034;2023-02-14T16:07:54;102097.28;;;7.44;76.19
62152;BME280;48139;47.474;19.034;2023-02-14T16:11:28;102098.28;;;7.26;76.84
62152;BME280;48139;47.474;19.034;2023-02-14T16:14:35;102107.91;;;7.16;78.45
62152;BME280;48139;47.474;19.034;2023-02-14T16:17:38;102106.22;;;7.03;78.86
62152;BME280;48139;47.474;19.034;2023-02-14T16:20:43;102108.81;;;7.09;79.22
62152;BME280;48139;47.474;19.034;2023-02-14T16:27:09;102117.59;;;6.84;80.85
62152;BME280;48139;47.474;19.034;2023-02-14T16:30:17;102115.91;;;6.71;83.34
62152;BME280;48139;47.474;19.034;2023-02-14T16:33:26;102121.16;;;6.56;85.42
62152;BME280;48139;47.474;19.034;2023-02-14T16:36:30;102119.44;;;6.47;86.67
62152;BME280;48139;47.474;19.034;2023-02-14T16:39:34;102132.47;;;6.32;88.41
62152;BME280;48139;47.474;19.034;2023-02-14T16:42:38;102126.41;;;6.28;88.58
62152;BME280;48139;47.474;19.034;2023-02-14T16:45:42;102131.63;;;6.24;89.01
62152;BME280;48139;47.474;19.034;2023-02-14T16:48:46;102135.94;;;6.29;87.30
